METAR Data
IDs: Format: Raw Decoded Include TAF

Data at: 1348 UTC 07 Jul 2020

KGKT 071335Z AUTO 00000KT 10SM CLR 23/20 A3003 RMK A01
KGKT 071315Z AUTO 00000KT 10SM CLR 23/21 A3003 RMK A01
KGKT 071255Z AUTO 00000KT 10SM CLR 23/21 A3003 RMK A01
KGKT 071235Z AUTO 00000KT 10SM CLR 22/20 A3003 RMK A01
KGKT 071215Z AUTO 00000KT 10SM CLR 22/21 A3002 RMK A01
KGKT 071155Z AUTO 00000KT 10SM CLR 22/21 A3002 RMK A01
KGKT 071135Z AUTO 00000KT 10SM CLR 22/21 A3002 RMK A01
KGKT 071115Z AUTO 00000KT 10SM CLR 22/20 A3002 RMK A01
KGKT 071055Z AUTO 00000KT 10SM CLR 21/21 A3001 RMK A01
KGKT 071035Z AUTO 00000KT 10SM CLR 21/20 A3001 RMK A01
KGKT 071015Z AUTO 00000KT 10SM CLR 21/20 A3001 RMK A01
KGKT 070955Z AUTO 00000KT 10SM CLR 21/20 A3001 RMK A01
KGKT 070935Z AUTO 00000KT 10SM FEW120 21/20 A3001 RMK A01
KGKT 070915Z AUTO 00000KT 10SM FEW120 21/21 A3001 RMK A01
KGKT 070855Z AUTO 00000KT 10SM BKN120 21/21 A3001 RMK A01
KGKT 070835Z AUTO 00000KT 10SM FEW120 22/21 A3001 RMK A01
KGKT 070815Z AUTO 00000KT 10SM CLR 22/20 A3001 RMK A01
KGKT 070755Z AUTO 00000KT 10SM CLR 22/20 A3001 RMK A01
KGKT 070735Z AUTO 00000KT 10SM CLR 22/20 A3002 RMK A01
KGKT 070715Z AUTO 00000KT 10SM CLR 22/20 A3002 RMK A01
KGKT 070655Z AUTO 00000KT 10SM CLR 22/20 A3002 RMK A01
KGKT 070635Z AUTO 00000KT 10SM CLR 22/20 A3002 RMK A01
KGKT 070615Z AUTO 00000KT 10SM FEW070 23/20 A3002 RMK A01
KGKT 070555Z AUTO 00000KT 10SM CLR 23/20 A3003 RMK A01
KGKT 070535Z AUTO 00000KT 10SM CLR 23/20 A3003 RMK A01
KGKT 070515Z AUTO 00000KT 10SM FEW110 23/20 A3003 RMK A01
KGKT 070455Z AUTO 00000KT 10SM SCT110 23/19 A3003 RMK A01
KGKT 070435Z AUTO 00000KT 10SM FEW110 24/20 A3003 RMK A01
KGKT 070415Z AUTO 00000KT 10SM FEW110 24/19 A3003 RMK A01
KGKT 070355Z AUTO 00000KT 10SM SCT110 25/19 A3003 RMK A01
KGKT 070335Z AUTO 00000KT 10SM FEW110 25/19 A3002 RMK A01
KGKT 070315Z AUTO 00000KT 10SM CLR 26/19 A3002 RMK A01
KGKT 070255Z AUTO 00000KT 10SM CLR 26/19 A3001 RMK A01
KGKT 070235Z AUTO 00000KT 10SM CLR 26/19 A3002 RMK A01
KGKT 070215Z AUTO 00000KT 10SM CLR 27/18 A3001 RMK A01
KGKT 070155Z AUTO 09004KT 10SM CLR 27/19 A3000 RMK A01
KGKT 070135Z AUTO VRB03KT 10SM FEW110 28/18 A2999 RMK A01
KGKT 070115Z AUTO 10003KT 10SM BKN110 28/18 A2999 RMK A01
KGKT 070055Z AUTO VRB03KT 10SM FEW060 FEW080 SCT100 29/19 A2998 RMK A01
KGKT 070035Z AUTO 10005KT 10SM SCT065 SCT080 SCT090 29/19 A2997 RMK A01
KGKT 070015Z AUTO VRB05KT 10SM SCT070 30/19 A2996 RMK A01
KGKT 062355Z AUTO VRB03KT 10SM CLR 30/19 A2996 RMK A01
KGKT 062335Z AUTO VRB03KT 10SM CLR 31/19 A2996 RMK A01
KGKT 062315Z AUTO VRB05KT 10SM CLR 31/19 A2996 RMK A01
KGKT 062255Z AUTO 04006KT 10SM CLR 32/19 A2997 RMK A01
KGKT 062235Z AUTO VRB03KT 10SM CLR 32/19 A2996 RMK A01
KGKT 062215Z AUTO 00000KT 10SM CLR 32/20 A2997 RMK A01
KGKT 062155Z AUTO 01005KT 10SM CLR 32/20 A2997 RMK A01
KGKT 062135Z AUTO 01006KT 10SM CLR 32/20 A2997 RMK A01
KGKT 062115Z AUTO 01004KT 10SM CLR 32/19 A2997 RMK A01
KGKT 062055Z AUTO 01006KT 10SM CLR 31/19 A2998 RMK A01
KGKT 062035Z AUTO 00000KT 10SM CLR 32/19 A2999 RMK A01
KGKT 062015Z AUTO 06005KT 10SM CLR 32/19 A2999 RMK A01
KGKT 061955Z AUTO 06007KT 10SM CLR 31/19 A3000 RMK A01
KGKT 061935Z AUTO VRB06KT 10SM CLR 31/20 A3001 RMK A01
KGKT 061915Z AUTO VRB04KT 10SM CLR 31/19 A3001 RMK A01
KGKT 061855Z AUTO 00000KT 10SM CLR 31/19 A3001 RMK A01
KGKT 061835Z AUTO 01007KT 10SM CLR 32/19 A3002 RMK A01
KGKT 061815Z AUTO VRB05KT 10SM CLR 31/19 A3002 RMK A01
KGKT 061755Z AUTO 00000G10KT 10SM CLR 31/19 A3003 RMK A01
KGKT 061735Z AUTO 04006KT 10SM CLR 31/20 A3004 RMK A01
KGKT 061715Z AUTO 00000KT 10SM CLR 31/21 A3005 RMK A01
KGKT 061655Z AUTO 00000KT 10SM CLR 29/21 A3006 RMK A01
KGKT 061635Z AUTO 35006KT 10SM CLR 29/22 A3006 RMK A01
KGKT 061615Z AUTO 00000KT 10SM CLR 29/21 A3007 RMK A01
KGKT 061555Z AUTO 00000KT 10SM CLR 29/20 A3006 RMK A01
KGKT 061535Z AUTO 00000KT 10SM CLR 29/20 A3006 RMK A01
KGKT 061515Z AUTO 00000KT 10SM CLR 29/20 A3006 RMK A01
KGKT 061455Z AUTO 34003KT 10SM CLR 28/20 A3006 RMK A01
KGKT 061435Z AUTO 00000KT 10SM CLR 28/19 A3006 RMK A01
KGKT 061415Z AUTO 00000KT 10SM CLR 27/20 A3006 RMK A01
KGKT 061355Z AUTO 00000KT 10SM CLR 26/20 A3005 RMK A01
KGKT 061335Z AUTO 00000KT 9SM CLR 26/20 A3006 RMK A01
KGKT 061315Z AUTO 00000KT 10SM CLR 25/20 A3005 RMK A01
KGKT 061255Z AUTO 00000KT 10SM CLR 25/21 A3005 RMK A01
KGKT 061235Z AUTO 00000KT 10SM CLR 24/21 A3005 RMK A01
KGKT 061215Z AUTO 00000KT 10SM CLR 23/21 A3005 RMK A01
KGKT 061155Z AUTO 00000KT 6SM BR FEW003 22/21 A3004 RMK A01
KGKT 061135Z AUTO 00000KT M1/4SM FG OVC002 21/21 A3004 RMK A01
KGKT 061115Z AUTO 00000KT M1/4SM FG OVC002 21/21 A3003 RMK A01
KGKT 061055Z AUTO 00000KT 2SM BR OVC002 21/21 A3003 RMK A01
KGKT 061035Z AUTO 00000KT 1/2SM BR OVC002 21/21 A3003 RMK A01
KGKT 061015Z AUTO 00000KT 1 1/2SM BR OVC003 21/21 A3003 RMK A01
KGKT 060955Z AUTO 00000KT 5SM BR OVC004 21/21 A3001 RMK A01
KGKT 060935Z AUTO 00000KT 7SM BKN004 21/21 A3001 RMK A01
KGKT 060915Z AUTO 00000KT 9SM CLR 21/21 A3000 RMK A01
KGKT 060855Z AUTO 00000KT 10SM CLR 21/21 A2998 RMK A01
KGKT 060835Z AUTO 00000KT 7SM CLR 21/21 A2998 RMK A01
KGKT 060815Z AUTO 00000KT 8SM CLR 21/21 A2997 RMK A01
KGKT 060755Z AUTO 00000KT 10SM CLR 21/21 A2997 RMK A01
KGKT 060735Z AUTO 00000KT 10SM CLR 22/21 A2997 RMK A01
KGKT 060715Z AUTO 00000KT 9SM CLR 22/22 A2997 RMK A01
KGKT 060655Z AUTO 00000KT 10SM CLR 22/22 A2998 RMK A01
KGKT 060635Z AUTO 00000KT 10SM CLR 22/22 A2999 RMK A01
KGKT 060615Z AUTO 00000KT 10SM CLR 22/22 A2999 RMK A01
KGKT 060555Z AUTO 00000KT 10SM CLR 22/22 A3000 RMK A01
KGKT 060535Z AUTO 00000KT 9SM CLR 22/22 A3001 RMK A01
KGKT 060515Z AUTO 00000KT 10SM CLR 23/22 A3001 RMK A01
KGKT 060455Z AUTO 00000KT 10SM CLR 23/23 A3001 RMK A01
KGKT 060435Z AUTO 00000KT 9SM CLR 23/23 A3002 RMK A01
KGKT 060415Z AUTO 00000KT 10SM CLR 23/23 A3001 RMK A01
KGKT 060355Z AUTO 00000KT 10SM CLR 23/23 A3001 RMK A01
KGKT 060335Z AUTO 00000KT 10SM CLR 23/23 A3001 RMK A01
KGKT 060315Z AUTO 00000KT 10SM SCT080 SCT090 24/23 A3001 RMK A01
KGKT 060255Z AUTO 00000KT 10SM BKN080 BKN090 24/23 A3001 RMK A01
KGKT 060235Z AUTO 00000KT 10SM CLR 24/23 A3000 RMK A01
KGKT 060215Z AUTO 00000KT 10SM CLR 25/23 A3000 RMK A01
KGKT 060155Z AUTO 00000KT 10SM CLR 25/23 A2999 RMK A01